Time;durP1;ratioP1;P1;durP2;ratioP2;P2;SDS_P1;SDS_P2;PMS_P1;PMS_P2;Temp;Humidity;BMP_temperature;BMP_pressure;BME280_temperature;BME280_humidity;BME280_pressure;Samples;Min_cycle;Max_cycle;Signal;HPM_P1;HPM_P2
2022/10/11 00:00:33;;;;;;;9.63;6.90;;;24.80;56.80;;;;;;7660724;22;80606;-58
2022/10/11 00:03:34;;;;;;;12.93;7.72;;;24.80;56.80;;;;;;7659294;22;81466;-60
2022/10/11 00:06:36;;;;;;;12.15;8.05;;;24.80;56.90;;;;;;7657497;22;80900;-59
2022/10/11 00:09:37;;;;;;;15.68;7.75;;;24.80;57.00;;;;;;7661826;22;81183;-59
2022/10/11 00:12:37;;;;;;;12.75;7.43;;;24.80;57.00;;;;;;7664194;22;80649;-58
2022/10/11 00:15:38;;;;;;;11.88;7.50;;;24.80;57.10;;;;;;7658585;22;81571;-58
2022/10/11 00:18:38;;;;;;;11.18;7.30;;;24.80;57.00;;;;;;7661647;22;81184;-58
2022/10/11 00:21:39;;;;;;;12.43;7.90;;;24.80;56.90;;;;;;7657348;22;81485;-58
2022/10/11 00:24:39;;;;;;;11.90;7.85;;;24.80;56.90;;;;;;7661994;22;80983;-58
2022/10/11 00:27:40;;;;;;;12.30;8.60;;;24.80;56.90;;;;;;7660540;22;82108;-53
2022/10/11 00:30:40;;;;;;;10.88;7.07;;;24.80;57.00;;;;;;7660558;22;81459;-51
2022/10/11 00:33:41;;;;;;;13.73;7.88;;;24.80;56.90;;;;;;7658048;22;81268;-50
2022/10/11 00:36:41;;;;;;;14.43;8.27;;;24.80;57.00;;;;;;7660632;22;81572;-53
2022/10/11 00:39:42;;;;;;;12.70;7.95;;;24.80;56.80;;;;;;7662227;22;81381;-54
2022/10/11 00:42:43;;;;;;;12.32;7.88;;;24.80;56.80;;;;;;7659738;22;81549;-54
2022/10/11 00:45:43;;;;;;;14.65;8.60;;;24.80;56.70;;;;;;7654401;22;80575;-51
2022/10/11 00:48:44;;;;;;;13.55;8.07;;;24.80;56.70;;;;;;7655371;22;81891;-51
2022/10/11 00:51:44;;;;;;;12.35;8.45;;;24.80;56.70;;;;;;7662120;22;82356;-52
2022/10/11 00:54:45;;;;;;;16.10;8.52;;;24.80;56.70;;;;;;7661137;22;80653;-54
2022/10/11 00:57:45;;;;;;;12.20;7.97;;;24.80;56.80;;;;;;7658537;22;81109;-54
2022/10/11 01:00:46;;;;;;;12.57;8.20;;;24.80;56.70;;;;;;7652430;22;81742;-55
2022/10/11 01:03:47;;;;;;;14.35;8.55;;;24.80;56.60;;;;;;7661411;22;80950;-53
2022/10/11 01:06:48;;;;;;;14.13;8.68;;;24.80;56.70;;;;;;7671265;22;81048;-52
2022/10/11 01:09:48;;;;;;;13.38;8.23;;;24.80;56.60;;;;;;7666789;22;80743;-56
2022/10/11 01:12:49;;;;;;;12.60;8.02;;;24.70;57.00;;;;;;7678777;22;80916;-54
2022/10/11 01:15:50;;;;;;;14.57;7.93;;;24.80;57.00;;;;;;7671487;22;81019;-56
2022/10/11 01:18:50;;;;;;;16.65;9.18;;;24.70;57.10;;;;;;7677253;22;81787;-55
2022/10/11 01:21:51;;;;;;;13.20;8.10;;;24.80;57.10;;;;;;7672438;22;87081;-54
2022/10/11 01:24:51;;;;;;;13.90;8.30;;;24.70;57.00;;;;;;7677643;22;80631;-54
2022/10/11 01:27:52;;;;;;;11.68;8.27;;;24.70;56.90;;;;;;7672646;22;80322;-54
2022/10/11 01:30:52;;;;;;;15.50;8.52;;;24.70;56.80;;;;;;7676960;22;80035;-55
2022/10/11 01:33:53;;;;;;;13.25;7.90;;;24.70;56.90;;;;;;7677111;22;80228;-53
2022/10/11 01:36:53;;;;;;;14.65;7.85;;;24.70;56.90;;;;;;7680053;22;80088;-54
2022/10/11 01:39:54;;;;;;;15.43;8.88;;;24.70;57.00;;;;;;7677021;22;80223;-48
2022/10/11 01:42:54;;;;;;;15.68;9.20;;;24.70;56.90;;;;;;7679057;22;82050;-52
2022/10/11 01:45:55;;;;;;;12.43;8.45;;;24.70;56.80;;;;;;7678559;22;81143;-46
2022/10/11 01:48:55;;;;;;;15.65;8.55;;;24.70;57.00;;;;;;7680729;22;80192;-47
2022/10/11 01:51:56;;;;;;;13.55;8.57;;;24.70;57.20;;;;;;7681808;22;81866;-48
2022/10/11 01:54:57;;;;;;;17.10;8.52;;;24.70;57.20;;;;;;7678059;22;80432;-47
2022/10/11 01:57:57;;;;;;;14.00;8.82;;;24.70;56.80;;;;;;7678700;22;81892;-58
2022/10/11 02:00:58;;;;;;;11.93;8.27;;;24.70;57.10;;;;;;7679398;22;80426;-58
2022/10/11 02:03:58;;;;;;;11.38;7.78;;;24.70;57.20;;;;;;7677260;22;81196;-57
2022/10/11 02:06:59;;;;;;;14.77;8.55;;;24.70;57.30;;;;;;7681895;22;80152;-58
2022/10/11 02:09:59;;;;;;;13.02;8.00;;;24.70;57.30;;;;;;7678751;22;80707;-59
2022/10/11 02:13:00;;;;;;;11.30;8.05;;;24.70;57.50;;;;;;7679641;22;80505;-59
2022/10/11 02:16:00;;;;;;;13.95;8.10;;;24.70;56.80;;;;;;7679313;22;81569;-59
2022/10/11 02:19:01;;;;;;;13.40;8.05;;;24.70;56.90;;;;;;7680155;22;80379;-59
2022/10/11 02:22:01;;;;;;;13.57;8.40;;;24.70;57.00;;;;;;7679325;22;81554;-59
2022/10/11 02:25:02;;;;;;;13.65;8.20;;;24.70;57.00;;;;;;7678567;22;81013;-58
2022/10/11 02:28:02;;;;;;;10.77;7.68;;;24.70;57.20;;;;;;7680084;22;81918;-59
2022/10/11 02:31:03;;;;;;;11.30;7.80;;;24.70;57.30;;;;;;7677718;22;81731;-56
2022/10/11 02:34:03;;;;;;;12.68;7.75;;;24.70;57.30;;;;;;7680027;22;80446;-58
2022/10/11 02:37:04;;;;;;;12.02;8.15;;;24.70;57.40;;;;;;7679432;22;80627;-57
2022/10/11 02:40:04;;;;;;;13.02;8.10;;;24.70;57.60;;;;;;7679547;22;79923;-59
2022/10/11 02:43:05;;;;;;;11.88;7.78;;;24.70;57.50;;;;;;7677627;22;80480;-58
2022/10/11 02:46:06;;;;;;;11.98;8.05;;;24.70;57.30;;;;;;7679655;22;80216;-59
2022/10/11 02:49:06;;;;;;;13.48;8.45;;;24.70;57.40;;;;;;7653836;22;81676;-59
2022/10/11 02:52:07;;;;;;;11.85;8.65;;;24.70;57.60;;;;;;7678383;22;81981;-57
2022/10/11 02:55:07;;;;;;;13.60;8.27;;;24.70;57.40;;;;;;7679778;22;80259;-58
2022/10/11 02:58:08;;;;;;;12.15;8.27;;;24.70;57.40;;;;;;7679754;22;80770;-59
2022/10/11 03:01:08;;;;;;;11.10;7.78;;;24.70;57.50;;;;;;7676782;22;80729;-57
2022/10/11 03:04:09;;;;;;;11.30;8.10;;;24.70;57.50;;;;;;7680692;22;80669;-58
2022/10/11 03:07:10;;;;;;;14.88;7.78;;;24.70;58.00;;;;;;7678606;22;80465;-58
2022/10/11 03:10:10;;;;;;;9.93;7.55;;;24.70;58.30;;;;;;7680651;22;81764;-58
2022/10/11 03:13:11;;;;;;;12.27;8.15;;;24.70;58.00;;;;;;7679341;22;81776;-50
2022/10/11 03:16:11;;;;;;;13.10;7.15;;;24.70;58.10;;;;;;7677709;22;80177;-47
2022/10/11 03:19:12;;;;;;;11.40;7.82;;;24.70;58.40;;;;;;7677986;22;81289;-48
2022/10/11 03:22:12;;;;;;;10.98;7.38;;;24.70;58.40;;;;;;7679404;22;80294;-50
2022/10/11 03:25:13;;;;;;;13.77;7.30;;;24.70;58.80;;;;;;7677928;22;80778;-51
2022/10/11 03:28:13;;;;;;;15.05;7.60;;;24.70;58.80;;;;;;7677659;22;80429;-48
2022/10/11 03:31:14;;;;;;;11.02;6.90;;;24.70;58.90;;;;;;7677901;22;80801;-53
2022/10/11 03:34:15;;;;;;;9.55;7.40;;;24.70;58.90;;;;;;7680138;22;80143;-55
2022/10/11 03:37:15;;;;;;;10.75;7.78;;;24.70;59.00;;;;;;7677335;22;81715;-54
2022/10/11 03:40:16;;;;;;;11.30;6.65;;;24.70;58.90;;;;;;7678402;22;86394;-55
2022/10/11 03:43:16;;;;;;;10.75;7.50;;;24.70;59.00;;;;;;7678206;22;80895;-54
2022/10/11 03:46:17;;;;;;;11.82;7.10;;;24.70;59.00;;;;;;7677567;22;82070;-55
2022/10/11 03:49:17;;;;;;;14.88;7.80;;;24.70;58.70;;;;;;7676204;22;81621;-54
2022/10/11 03:52:18;;;;;;;11.35;6.78;;;24.70;58.80;;;;;;7678798;22;80340;-57
2022/10/11 03:55:18;;;;;;;10.75;7.40;;;24.70;58.90;;;;;;7676774;22;81757;-55
2022/10/11 03:58:19;;;;;;;11.35;7.50;;;24.70;59.00;;;;;;7651315;22;81087;-55
2022/10/11 04:01:19;;;;;;;10.82;6.90;;;24.70;59.00;;;;;;7676610;22;81117;-55
2022/10/11 04:04:20;;;;;;;10.68;6.93;;;24.70;59.00;;;;;;7677648;22;80903;-51
2022/10/11 04:07:21;;;;;;;9.88;7.00;;;24.70;59.10;;;;;;7678319;22;80304;-53
2022/10/11 04:10:21;;;;;;;10.02;7.00;;;24.70;58.90;;;;;;7670657;22;80939;-56
2022/10/11 04:13:22;;;;;;;10.38;7.07;;;24.70;59.10;;;;;;7674427;22;80229;-52
2022/10/11 04:16:22;;;;;;;9.35;6.93;;;24.70;49.90;;;;;;7676943;22;80430;-52
2022/10/11 04:19:23;;;;;;;12.35;7.40;;;24.70;50.00;;;;;;7678011;22;80843;-51
2022/10/11 04:22:23;;;;;;;10.80;6.95;;;24.70;49.70;;;;;;7677831;22;80161;-53
2022/10/11 04:25:24;;;;;;;14.55;7.25;;;24.70;49.40;;;;;;7673943;22;80677;-56
2022/10/11 04:28:24;;;;;;;11.27;7.30;;;24.70;49.40;;;;;;7678509;22;80043;-54
2022/10/11 04:31:25;;;;;;;11.55;7.28;;;24.70;49.10;;;;;;7677795;22;80416;-57
2022/10/11 04:34:25;;;;;;;10.20;7.18;;;24.70;48.80;;;;;;7680332;22;80698;-57
2022/10/11 04:37:26;;;;;;;9.68;7.18;;;24.70;48.90;;;;;;7677758;22;81329;-59
2022/10/11 04:40:26;;;;;;;15.77;8.07;;;24.70;48.60;;;;;;7679449;22;80854;-55
2022/10/11 04:43:27;;;;;;;13.75;7.90;;;24.70;48.70;;;;;;7672573;22;80900;-54
2022/10/11 04:46:28;;;;;;;13.32;7.22;;;24.70;48.60;;;;;;7678549;22;80570;-52
2022/10/11 04:49:28;;;;;;;11.70;7.82;;;24.70;49.30;;;;;;7676817;22;80780;-57
2022/10/11 04:52:29;;;;;;;16.30;6.90;;;24.70;48.60;;;;;;7678411;22;80907;-56
2022/10/11 04:55:29;;;;;;;12.63;7.20;;;24.80;49.00;;;;;;7674412;22;79930;-57
2022/10/11 04:58:30;;;;;;;14.90;7.25;;;24.70;49.00;;;;;;7677388;22;80424;-55
2022/10/11 05:01:30;;;;;;;11.65;7.28;;;24.70;49.10;;;;;;7672765;22;81679;-56
2022/10/11 05:04:31;;;;;;;13.15;7.13;;;24.70;49.20;;;;;;7679640;22;81983;-51
2022/10/11 05:07:32;;;;;;;12.10;8.43;;;24.70;49.30;;;;;;7679073;22;80440;-61
2022/10/11 05:10:32;;;;;;;11.35;7.72;;;24.70;49.30;;;;;;7673639;22;81018;-56
2022/10/11 05:13:33;;;;;;;14.95;7.78;;;24.70;49.40;;;;;;7671341;22;80404;-56
2022/10/11 05:16:33;;;;;;;11.30;7.35;;;24.70;49.40;;;;;;7670911;22;81398;-54
2022/10/11 05:19:34;;;;;;;14.90;7.47;;;24.80;49.50;;;;;;7667984;22;80518;-57
2022/10/11 05:22:34;;;;;;;14.52;7.72;;;24.80;49.50;;;;;;7672074;22;80154;-62
2022/10/11 05:25:35;;;;;;;17.45;9.27;;;24.80;49.50;;;;;;7677955;22;81224;-56
2022/10/11 05:28:35;;;;;;;16.27;8.55;;;24.80;49.50;;;;;;7670730;22;81450;-57
2022/10/11 05:31:36;;;;;;;16.42;8.65;;;24.80;49.40;;;;;;7661623;22;81001;-57
2022/10/11 05:34:37;;;;;;;13.38;8.45;;;24.80;49.40;;;;;;7672315;22;80237;-62
2022/10/11 05:37:37;;;;;;;16.65;8.73;;;24.80;49.40;;;;;;7676616;22;80404;-57
2022/10/11 05:40:37;;;;;;;16.85;9.27;;;24.70;49.50;;;;;;7675802;22;81162;-58
2022/10/11 05:43:38;;;;;;;12.77;8.65;;;24.70;49.30;;;;;;7675953;22;80497;-56
2022/10/11 05:46:39;;;;;;;13.85;9.07;;;24.80;49.40;;;;;;7666258;22;82628;-54
2022/10/11 05:49:39;;;;;;;14.43;8.55;;;24.80;49.60;;;;;;7675036;22;81641;-55
2022/10/11 05:52:40;;;;;;;15.50;9.27;;;24.80;49.50;;;;;;7675904;22;81484;-52
2022/10/11 05:55:40;;;;;;;19.23;8.70;;;24.80;49.60;;;;;;7669920;22;80837;-55
2022/10/11 05:58:41;;;;;;;15.07;9.27;;;24.80;49.60;;;;;;7679795;22;81164;-55
2022/10/11 06:01:41;;;;;;;12.13;8.65;;;24.80;49.60;;;;;;7678787;22;80328;-56
2022/10/11 06:04:42;;;;;;;15.50;8.52;;;24.80;49.50;;;;;;7679476;22;80005;-53
2022/10/11 06:07:42;;;;;;;14.38;8.73;;;24.90;49.70;;;;;;7678463;22;80769;-55
2022/10/11 06:10:43;;;;;;;12.40;8.63;;;24.90;49.60;;;;;;7680515;22;80388;-54
2022/10/11 06:13:44;;;;;;;13.88;8.23;;;24.90;49.60;;;;;;7678414;22;80308;-56
2022/10/11 06:16:44;;;;;;;13.20;8.77;;;24.90;49.50;;;;;;7677769;22;80214;-54
2022/10/11 06:19:45;;;;;;;13.05;8.50;;;24.90;49.60;;;;;;7676043;22;80221;-52
2022/10/11 06:22:45;;;;;;;12.90;8.43;;;24.90;49.40;;;;;;7678107;22;80977;-54
2022/10/11 06:25:46;;;;;;;12.40;7.80;;;24.90;49.40;;;;;;7680978;22;80407;-53
2022/10/11 06:28:46;;;;;;;12.63;8.20;;;24.90;49.40;;;;;;7678972;22;80182;-50
2022/10/11 06:31:47;;;;;;;11.88;8.27;;;24.90;49.30;;;;;;7677355;22;80935;-56
2022/10/11 06:34:47;;;;;;;16.83;8.18;;;24.90;49.20;;;;;;7678139;22;80352;-61
2022/10/11 06:37:48;;;;;;;18.33;10.60;;;24.90;49.20;;;;;;7680455;22;80142;-60
2022/10/11 06:40:48;;;;;;;20.95;8.85;;;24.80;48.00;;;;;;7676653;22;83665;-61
2022/10/11 06:43:49;;;;;;;15.80;9.38;;;24.80;48.90;;;;;;7658027;22;82955;-59
2022/10/11 06:46:49;;;;;;;15.88;8.85;;;24.80;48.70;;;;;;7665500;22;81439;-60
2022/10/11 06:49:50;;;;;;;12.48;8.90;;;24.70;48.70;;;;;;7679849;22;81483;-60
2022/10/11 06:52:50;;;;;;;16.65;9.70;;;24.70;48.70;;;;;;7680089;22;80644;-58
2022/10/11 06:55:51;;;;;;;13.23;8.40;;;24.70;48.50;;;;;;7679244;22;81431;-58
2022/10/11 06:58:52;;;;;;;15.57;9.93;;;24.70;48.70;;;;;;7678665;22;80640;-59
2022/10/11 07:01:52;;;;;;;17.15;8.70;;;24.70;48.70;;;;;;7678863;22;81657;-58
2022/10/11 07:04:53;;;;;;;26.65;8.80;;;24.70;48.50;;;;;;7679738;22;80308;-59
2022/10/11 07:07:53;;;;;;;14.32;8.27;;;24.70;48.20;;;;;;7676621;22;81933;-59
2022/10/11 07:10:54;;;;;;;14.32;7.97;;;24.70;48.10;;;;;;7677168;22;80200;-55
2022/10/11 07:13:54;;;;;;;11.75;7.63;;;24.70;48.00;;;;;;7679708;22;80584;-55
2022/10/11 07:16:56;;;;;;;10.43;7.10;;;24.60;47.90;;;;;;7670428;22;80334;-57
2022/10/11 07:19:56;;;;;;;12.57;7.93;;;24.70;47.90;;;;;;7680656;22;80572;-54
2022/10/11 07:22:57;;;;;;;15.57;7.60;;;24.60;47.70;;;;;;7676930;22;80444;-60
2022/10/11 07:25:57;;;;;;;13.13;7.88;;;24.60;47.90;;;;;;7676737;22;80215;-58
2022/10/11 07:28:58;;;;;;;13.77;8.27;;;24.60;47.80;;;;;;7670768;22;80509;-49
2022/10/11 07:31:58;;;;;;;18.63;8.93;;;24.60;47.70;;;;;;7667182;22;80413;-51
2022/10/11 07:34:59;;;;;;;14.57;8.55;;;24.60;47.50;;;;;;7668530;22;81071;-49
2022/10/11 07:37:59;;;;;;;12.93;8.32;;;24.60;47.40;;;;;;7669112;22;80289;-50
2022/10/11 07:41:00;;;;;;;17.40;8.52;;;24.50;47.40;;;;;;7670831;22;80185;-52
2022/10/11 07:44:02;;;;;;;18.75;8.20;;;24.50;47.20;;;;;;7669784;22;81643;-52
2022/10/11 07:47:02;;;;;;;12.30;8.23;;;24.50;47.30;;;;;;7670429;22;80185;-53
2022/10/11 07:50:03;;;;;;;13.90;8.80;;;24.40;47.40;;;;;;7673668;22;81008;-52
2022/10/11 07:53:03;;;;;;;16.50;9.23;;;24.40;47.40;;;;;;7681399;22;80202;-53
2022/10/11 07:56:04;;;;;;;15.20;8.77;;;24.40;47.50;;;;;;7678969;22;80969;-52
2022/10/11 07:59:05;;;;;;;15.02;8.70;;;24.40;47.40;;;;;;7675110;22;80377;-52
2022/10/11 08:02:05;;;;;;;15.80;9.18;;;24.40;47.40;;;;;;7680652;22;80498;-49
2022/10/11 08:05:06;;;;;;;41.83;24.73;;;24.40;47.30;;;;;;7678970;22;81320;-48
2022/10/11 08:08:06;;;;;;;69.80;40.28;;;24.40;47.30;;;;;;7648504;22;82725;-49
2022/10/11 08:11:07;;;;;;;110.25;58.10;;;24.40;47.40;;;;;;7676149;22;83627;-50
2022/10/11 08:14:07;;;;;;;103.88;55.05;;;24.40;47.30;;;;;;7674668;22;83098;-54
2022/10/11 08:17:08;;;;;;;80.40;45.20;;;24.40;47.30;;;;;;7678941;22;84024;-50
2022/10/11 08:20:09;;;;;;;76.82;38.95;;;24.40;47.30;;;;;;7670287;22;83411;-51
2022/10/11 08:23:09;;;;;;;72.70;35.78;;;24.30;47.20;;;;;;7672525;22;84002;-51
2022/10/11 08:26:10;;;;;;;63.22;31.60;;;24.40;47.40;;;;;;7675890;22;82875;-64
2022/10/11 08:29:10;;;;;;;46.97;26.48;;;24.30;47.30;;;;;;7679453;22;83831;-63
2022/10/11 08:32:11;;;;;;;45.13;23.83;;;24.30;47.40;;;;;;7677631;22;84090;-64
2022/10/11 08:35:11;;;;;;;46.97;21.85;;;24.40;47.50;;;;;;7673418;22;83988;-62
2022/10/11 08:38:12;;;;;;;33.85;19.35;;;24.30;47.50;;;;;;7673985;22;82975;-65
2022/10/11 08:41:12;;;;;;;35.92;19.73;;;24.30;47.40;;;;;;7677277;22;83112;-63
2022/10/11 08:44:13;;;;;;;34.67;16.42;;;24.30;47.50;;;;;;7679766;22;82944;-59
2022/10/11 08:47:13;;;;;;;30.75;16.50;;;24.30;47.50;;;;;;7670802;22;82439;-59
2022/10/11 08:50:14;;;;;;;28.35;14.95;;;24.30;47.60;;;;;;7678974;22;83213;-59
2022/10/11 08:53:14;;;;;;;23.17;14.77;;;24.30;47.60;;;;;;7675887;22;82693;-59
2022/10/11 08:56:15;;;;;;;23.83;13.95;;;24.30;47.60;;;;;;7674712;22;83929;-59
2022/10/11 08:59:16;;;;;;;18.05;11.82;;;24.30;47.60;;;;;;7669417;22;83753;-59
2022/10/11 09:02:16;;;;;;;20.60;11.32;;;24.40;47.60;;;;;;7671042;22;84999;-64
2022/10/11 09:05:17;;;;;;;18.00;10.48;;;24.30;47.60;;;;;;7676073;22;83037;-63
2022/10/11 09:08:17;;;;;;;22.85;11.20;;;24.30;47.70;;;;;;7677315;22;82731;-63
2022/10/11 09:11:19;;;;;;;18.08;10.45;;;24.30;47.70;;;;;;7676328;22;83234;-63
2022/10/11 09:14:19;;;;;;;17.33;9.77;;;24.30;47.70;;;;;;7676631;22;83274;-63
2022/10/11 09:17:20;;;;;;;16.40;9.50;;;24.30;47.80;;;;;;7670150;22;82819;-63
2022/10/11 09:20:21;;;;;;;13.60;9.35;;;24.30;48.00;;;;;;7677296;22;80786;-60
2022/10/11 09:23:21;;;;;;;15.68;9.23;;;24.30;47.80;;;;;;7677765;22;80771;-59
2022/10/11 09:26:22;;;;;;;16.05;9.20;;;24.30;47.90;;;;;;7677049;22;80377;-59
2022/10/11 09:29:22;;;;;;;16.55;9.98;;;24.30;47.90;;;;;;7676940;22;80195;-57
2022/10/11 09:32:23;;;;;;;21.25;9.55;;;24.30;47.90;;;;;;7674762;22;84723;-58
2022/10/11 09:35:24;;;;;;;17.30;8.25;;;24.30;47.90;;;;;;7677395;22;82808;-59
2022/10/11 09:38:24;;;;;;;20.25;8.98;;;24.30;48.10;;;;;;7649288;22;80152;-58
2022/10/11 09:41:25;;;;;;;18.73;9.05;;;24.30;48.20;;;;;;7676601;22;80952;-59
2022/10/11 09:44:25;;;;;;;15.68;9.10;;;24.30;48.20;;;;;;7678338;22;81143;-59
2022/10/11 09:47:26;;;;;;;11.82;8.02;;;24.30;48.20;;;;;;7675537;22;80293;-58
2022/10/11 09:50:28;;;;;;;15.88;7.95;;;24.40;48.40;;;;;;7678947;22;80588;-59
2022/10/11 09:53:29;;;;;;;14.30;8.07;;;24.40;48.30;;;;;;7676664;22;80313;-59
2022/10/11 09:56:29;;;;;;;16.85;8.02;;;24.40;48.40;;;;;;7674918;22;82602;-58
2022/10/11 09:59:30;;;;;;;15.55;8.55;;;24.40;48.30;;;;;;7675801;22;80277;-59
2022/10/11 10:02:30;;;;;;;13.50;8.20;;;24.40;48.40;;;;;;7674919;22;81533;-60
2022/10/11 10:05:31;;;;;;;14.63;8.05;;;24.40;48.50;;;;;;7675991;22;80984;-59
2022/10/11 10:08:31;;;;;;;15.35;8.07;;;24.40;48.50;;;;;;7675676;22;84483;-58
2022/10/11 10:11:32;;;;;;;13.13;8.02;;;24.50;48.40;;;;;;7678957;22;82004;-59
2022/10/11 10:14:32;;;;;;;11.25;7.30;;;24.40;48.50;;;;;;7679197;22;80060;-61
2022/10/11 10:17:33;;;;;;;16.02;8.00;;;24.40;48.40;;;;;;7677159;22;80229;-60
2022/10/11 10:20:33;;;;;;;13.55;7.75;;;24.50;48.20;;;;;;7680153;22;80220;-62
2022/10/11 10:23:34;;;;;;;14.93;8.68;;;24.60;48.20;;;;;;7680867;22;82117;-62
2022/10/11 10:26:34;;;;;;;13.82;7.68;;;24.70;48.40;;;;;;7650229;22;82298;-61
2022/10/11 10:29:35;;;;;;;12.60;7.57;;;24.70;48.70;;;;;;7652398;22;81534;-62
2022/10/11 10:32:36;;;;;;;16.50;7.30;;;24.80;49.50;;;;;;7679779;22;80139;-61
2022/10/11 10:35:36;;;;;;;12.48;7.78;;;24.80;49.50;;;;;;7674053;22;80462;-61
2022/10/11 10:38:36;;;;;;;14.93;7.65;;;24.80;49.50;;;;;;7675137;22;80473;-62
2022/10/11 10:41:37;;;;;;;15.57;7.88;;;24.80;49.80;;;;;;7678280;22;80102;-62
2022/10/11 10:44:38;;;;;;;16.20;7.68;;;24.80;50.00;;;;;;7672041;22;81868;-62
2022/10/11 10:47:38;;;;;;;13.90;7.28;;;24.90;50.30;;;;;;7678737;22;80460;-63
2022/10/11 10:50:39;;;;;;;25.40;16.60;;;24.90;50.20;;;;;;7678494;22;80335;-62
2022/10/11 10:53:39;;;;;;;23.77;14.57;;;24.90;50.40;;;;;;7675904;22;85175;-61
2022/10/11 10:56:40;;;;;;;23.25;13.18;;;24.90;50.10;;;;;;7674515;22;83053;-59
2022/10/11 10:59:40;;;;;;;19.45;11.77;;;24.90;49.90;;;;;;7672294;22;84126;-61
2022/10/11 11:02:41;;;;;;;21.60;11.88;;;24.90;49.60;;;;;;7669607;22;87296;-61
2022/10/11 11:05:41;;;;;;;19.25;10.85;;;24.90;49.60;;;;;;7674577;22;84350;-62
2022/10/11 11:08:42;;;;;;;18.25;10.15;;;24.90;49.40;;;;;;7653192;22;83529;-63
2022/10/11 11:11:42;;;;;;;12.98;8.13;;;24.90;49.30;;;;;;7659086;22;83995;-60
2022/10/11 11:14:43;;;;;;;17.98;8.90;;;24.90;49.10;;;;;;7662573;22;82095;-61
2022/10/11 11:17:43;;;;;;;22.63;8.60;;;24.90;49.20;;;;;;7660088;22;81408;-59
2022/10/11 11:20:44;;;;;;;13.57;7.68;;;24.90;49.30;;;;;;7671653;22;80540;-60
2022/10/11 11:23:44;;;;;;;12.65;8.05;;;24.90;49.40;;;;;;7676800;22;81210;-63
2022/10/11 11:26:45;;;;;;;17.05;8.32;;;24.90;49.40;;;;;;7679707;22;81330;-60
2022/10/11 11:29:46;;;;;;;16.98;8.38;;;25.00;49.20;;;;;;7680008;22;81702;-58
2022/10/11 11:32:47;;;;;;;15.45;7.32;;;25.10;49.20;;;;;;7678712;22;80183;-59
2022/10/11 11:35:47;;;;;;;16.27;7.70;;;25.20;49.10;;;;;;7678606;22;82443;-60
2022/10/11 11:38:48;;;;;;;14.57;7.78;;;25.30;49.00;;;;;;7679938;22;80977;-59
2022/10/11 11:41:49;;;;;;;16.98;7.32;;;25.40;49.00;;;;;;7650886;22;81721;-60
2022/10/11 11:44:49;;;;;;;12.45;6.70;;;25.50;48.90;;;;;;7680919;22;81985;-60
2022/10/11 11:47:49;;;;;;;14.27;7.15;;;25.50;49.00;;;;;;7677804;22;80166;-59
2022/10/11 11:50:51;;;;;;;19.75;7.70;;;25.60;48.60;;;;;;7651666;22;81633;-60
2022/10/11 11:53:51;;;;;;;12.75;7.00;;;25.60;48.60;;;;;;7679123;22;80773;-59
2022/10/11 11:56:52;;;;;;;14.02;6.75;;;25.60;48.80;;;;;;7681269;22;80876;-60
2022/10/11 11:59:52;;;;;;;17.00;7.00;;;25.50;48.60;;;;;;7677379;22;80386;-59
2022/10/11 12:02:53;;;;;;;13.38;7.03;;;25.50;48.80;;;;;;7678796;22;82268;-59
2022/10/11 12:05:53;;;;;;;12.82;6.85;;;25.40;48.60;;;;;;7678294;22;80452;-59
2022/10/11 12:08:54;;;;;;;13.40;6.68;;;25.30;48.60;;;;;;7680427;22;80114;-60
2022/10/11 12:11:54;;;;;;;12.05;6.68;;;25.30;48.60;;;;;;7678260;22;80628;-59
2022/10/11 12:14:55;;;;;;;9.98;6.50;;;25.20;48.50;;;;;;7679219;22;80026;-60
2022/10/11 12:17:56;;;;;;;11.13;6.88;;;25.20;48.80;;;;;;7678978;22;81038;-59
2022/10/11 12:20:56;;;;;;;11.32;6.28;;;25.20;48.50;;;;;;7678276;22;81405;-61
2022/10/11 12:23:57;;;;;;;11.13;6.05;;;25.20;48.50;;;;;;7682233;22;80547;-60
2022/10/11 12:26:58;;;;;;;18.02;6.50;;;25.10;48.70;;;;;;7677510;22;80367;-60
2022/10/11 12:29:58;;;;;;;8.88;5.18;;;25.10;48.30;;;;;;7677982;22;81430;-60
2022/10/11 12:32:59;;;;;;;10.45;5.85;;;25.10;48.40;;;;;;7674551;22;80766;-63
2022/10/11 12:36:00;;;;;;;11.20;5.90;;;25.10;48.10;;;;;;7679229;22;79947;-62
2022/10/11 12:39:00;;;;;;;9.48;5.72;;;25.10;48.20;;;;;;7677225;22;80945;-61
2022/10/11 12:42:01;;;;;;;7.90;5.53;;;25.20;48.50;;;;;;7678527;22;80679;-60
2022/10/11 12:45:02;;;;;;;14.18;6.68;;;25.10;48.50;;;;;;7678596;22;80608;-60
2022/10/11 12:48:02;;;;;;;11.40;6.05;;;25.10;48.00;;;;;;7680269;22;80345;-61
2022/10/11 12:51:03;;;;;;;10.80;6.28;;;25.00;48.20;;;;;;7677826;22;80864;-59
2022/10/11 12:54:03;;;;;;;18.80;9.15;;;25.00;48.20;;;;;;7677468;22;81492;-60
2022/10/11 12:57:04;;;;;;;20.05;8.55;;;25.00;48.10;;;;;;7651014;22;81394;-60
2022/10/11 13:00:04;;;;;;;19.77;8.15;;;25.00;48.20;;;;;;7677805;22;80185;-48
2022/10/11 13:03:05;;;;;;;11.95;6.68;;;24.90;48.40;;;;;;7643872;22;81317;-51
2022/10/11 13:06:05;;;;;;;13.93;6.50;;;24.90;48.20;;;;;;7673088;22;81828;-47
2022/10/11 13:09:06;;;;;;;14.32;6.20;;;24.90;48.00;;;;;;7677035;22;80592;-50
2022/10/11 13:12:06;;;;;;;9.77;6.85;;;24.70;48.10;;;;;;7678378;22;80880;-49
2022/10/11 13:15:08;;;;;;;13.40;6.50;;;24.70;48.40;;;;;;7677176;22;80112;-50
2022/10/11 13:18:09;;;;;;;11.80;6.15;;;24.60;48.60;;;;;;7669899;22;82265;-52
2022/10/11 13:21:09;;;;;;;18.45;6.53;;;24.60;48.90;;;;;;7679720;22;81865;-50
2022/10/11 13:24:10;;;;;;;10.43;6.68;;;24.60;48.90;;;;;;7681022;22;81606;-49
2022/10/11 13:27:10;;;;;;;12.70;6.22;;;24.60;49.20;;;;;;7680177;22;81554;-49
2022/10/11 13:30:11;;;;;;;31.85;16.15;;;24.60;49.40;;;;;;7680196;22;81191;-54
2022/10/11 13:33:11;;;;;;;160.77;68.32;;;24.70;49.30;;;;;;7673074;22;82634;-53
2022/10/11 13:36:12;;;;;;;356.77;151.30;;;24.70;49.30;;;;;;7676124;22;84442;-51
2022/10/11 13:39:12;;;;;;;432.73;185.45;;;24.70;49.60;;;;;;7676072;22;85071;-53
2022/10/11 13:42:13;;;;;;;543.35;241.63;;;24.70;49.20;;;;;;7645837;22;87290;-52
2022/10/11 13:45:15;;;;;;;521.55;227.55;;;24.70;49.10;;;;;;7665645;22;85222;-53
2022/10/11 13:48:15;;;;;;;465.83;193.50;;;24.70;49.20;;;;;;7658869;22;86675;-49
2022/10/11 13:51:16;;;;;;;389.55;154.65;;;24.70;49.20;;;;;;7669635;22;86186;-61
2022/10/11 13:54:16;;;;;;;344.70;139.07;;;24.70;49.10;;;;;;7671125;22;85159;-56
2022/10/11 13:57:17;;;;;;;272.80;113.40;;;24.70;49.60;;;;;;7674158;22;86531;-51
2022/10/11 14:00:17;;;;;;;240.45;100.60;;;24.70;48.90;;;;;;7674320;22;85345;-48
2022/10/11 14:03:18;;;;;;;189.55;79.53;;;24.70;48.90;;;;;;7672518;22;87979;-52
2022/10/11 14:06:18;;;;;;;172.80;69.93;;;24.70;48.90;;;;;;7672617;22;85247;-50
2022/10/11 14:09:19;;;;;;;159.65;68.75;;;24.60;49.10;;;;;;7663168;22;83580;-49
2022/10/11 14:12:19;;;;;;;141.23;59.50;;;24.60;49.30;;;;;;7669364;22;82781;-52
2022/10/11 14:15:20;;;;;;;103.35;49.63;;;24.60;49.20;;;;;;7670637;22;83375;-51
2022/10/11 14:18:20;;;;;;;114.78;46.42;;;24.70;49.20;;;;;;7662052;22;84472;-56
2022/10/11 14:21:21;;;;;;;107.93;46.38;;;24.70;49.40;;;;;;7667232;22;83919;-51
2022/10/11 14:24:22;;;;;;;98.75;39.20;;;24.70;49.30;;;;;;7669629;22;83431;-53
2022/10/11 14:27:22;;;;;;;75.50;34.15;;;24.70;49.50;;;;;;7668542;22;84377;-49
2022/10/11 14:30:23;;;;;;;71.88;28.83;;;24.70;49.40;;;;;;7673930;22;83387;-51
2022/10/11 14:33:23;;;;;;;56.80;26.83;;;24.70;49.20;;;;;;7674451;22;82578;-48
2022/10/11 14:36:26;;;;;;;53.38;23.55;;;24.70;49.30;;;;;;7678947;22;83269;-48
2022/10/11 14:39:27;;;;;;;56.75;21.17;;;24.70;49.10;;;;;;7674811;22;82860;-47
2022/10/11 14:42:27;;;;;;;46.25;19.20;;;24.80;49.10;;;;;;7674557;22;83025;-49
2022/10/11 14:45:28;;;;;;;34.88;16.20;;;25.10;48.20;;;;;;7667966;22;83461;-53
2022/10/11 14:48:28;;;;;;;31.88;16.02;;;25.30;47.70;;;;;;7670581;22;82870;-49
2022/10/11 14:51:29;;;;;;;33.67;15.07;;;25.20;47.70;;;;;;7667732;22;83409;-49
2022/10/11 14:54:29;;;;;;;25.27;12.40;;;25.20;48.10;;;;;;7662005;22;83047;-49
2022/10/11 14:57:30;;;;;;;22.00;12.02;;;25.20;47.90;;;;;;7659487;22;84003;-52
2022/10/11 15:00:30;;;;;;;24.73;10.30;;;25.20;47.70;;;;;;7662591;22;84912;-51
2022/10/11 15:03:31;;;;;;;19.27;10.07;;;25.30;47.60;;;;;;7669009;22;83631;-52
2022/10/11 15:06:31;;;;;;;15.55;9.35;;;25.20;47.50;;;;;;7670672;22;82799;-49
2022/10/11 15:09:32;;;;;;;16.63;8.90;;;25.20;47.40;;;;;;7673045;22;81867;-50
2022/10/11 15:12:32;;;;;;;15.20;7.85;;;25.10;47.30;;;;;;7672794;22;80790;-49
2022/10/11 15:15:35;;;;;;;14.98;8.93;;;25.10;47.70;;;;;;7670396;22;81160;-47
2022/10/11 15:18:37;;;;;;;18.20;8.98;;;25.00;47.50;;;;;;7673136;22;80929;-49
2022/10/11 15:21:37;;;;;;;15.27;9.10;;;24.90;47.70;;;;;;7674942;22;80752;-50